EDW816 FIMP-FSIA
Flight info
| Callsign | EDW816 |
|---|---|
| Flight time | 2h 14m |
| Altitude | 41000 |
| Route | DURDA1A DURDA UT401 ALRAN UM313 RERUS/N0480F400 DCT NESID NESID1E |
| Aircraft | A359/H-SDE2E3GHIJ3J4J5LM1ORWXY/LB1D1 |
Departure
| Time | 2026-04-26 21:49 |
|---|---|
| Airport | Sir Seewoosagur Ramgoolam International Airport (FIMP) |
Arrival
| Time | 2026-04-27 00:03 |
|---|---|
| Airport | Seychelles International Airport (FSIA) |
| Time | Latitude | Longitude | Altitude | Speed | Heading |
|---|---|---|---|---|---|
| 2026-04-26 21:29 | -20.43207 | 57.67910 | 193 ft | 0 kts | 225° |
| 2026-04-26 21:42 | -20.43199 | 57.67919 | 190 ft | 4 kts | 225° |
| 2026-04-26 21:42 | -20.43180 | 57.67939 | 208 ft | 4 kts | 225° |
| 2026-04-26 21:42 | -20.43163 | 57.67956 | 193 ft | 4 kts | 228° |
| 2026-04-26 21:42 | -20.43152 | 57.67978 | 193 ft | 4 kts | 276° |
| 2026-04-26 21:43 | -20.43162 | 57.68002 | 193 ft | 4 kts | 315° |
| 2026-04-26 21:43 | -20.43174 | 57.68013 | 193 ft | 0 kts | 319° |
| 2026-04-26 21:46 | -20.43160 | 57.68000 | 193 ft | 10 kts | 316° |
| 2026-04-26 21:46 | -20.43088 | 57.67906 | 196 ft | 22 kts | 301° |
| 2026-04-26 21:46 | -20.43009 | 57.67739 | 205 ft | 26 kts | 297° |
| 2026-04-26 21:46 | -20.42899 | 57.67620 | 191 ft | 22 kts | 329° |
| 2026-04-26 21:47 | -20.42768 | 57.67524 | 200 ft | 23 kts | 323° |
| 2026-04-26 21:47 | -20.42628 | 57.67454 | 210 ft | 21 kts | 339° |
| 2026-04-26 21:47 | -20.42537 | 57.67344 | 204 ft | 20 kts | 297° |
| 2026-04-26 21:47 | -20.42477 | 57.67220 | 210 ft | 18 kts | 297° |
| 2026-04-26 21:48 | -20.42431 | 57.67099 | 214 ft | 17 kts | 277° |
| 2026-04-26 21:48 | -20.42426 | 57.66973 | 211 ft | 17 kts | 284° |
| 2026-04-26 21:48 | -20.42361 | 57.66933 | 223 ft | 8 kts | 43° |
| 2026-04-26 21:48 | -20.42364 | 57.66979 | 223 ft | 9 kts | 111° |
| 2026-04-26 21:49 | -20.42501 | 57.67267 | 209 ft | 82 kts | 117° |
| 2026-04-26 21:49 | -20.42870 | 57.68034 | 189 ft | 148 kts | 117° |
| 2026-04-26 21:49 | -20.43419 | 57.69148 | 469 ft | 180 kts | 116° |
| 2026-04-26 21:49 | -20.43845 | 57.70386 | 1284 ft | 179 kts | 94° |
| 2026-04-26 21:50 | -20.43528 | 57.71674 | 1721 ft | 190 kts | 54° |
| 2026-04-26 21:50 | -20.42369 | 57.72461 | 1920 ft | 216 kts | 12° |
| 2026-04-26 21:50 | -20.40817 | 57.72216 | 2235 ft | 240 kts | 339° |
| 2026-04-26 21:50 | -20.39293 | 57.71391 | 2762 ft | 250 kts | 335° |
| 2026-04-26 21:51 | -20.37731 | 57.70528 | 3364 ft | 256 kts | 336° |
| 2026-04-26 21:51 | -20.36118 | 57.69690 | 3982 ft | 259 kts | 338° |
| 2026-04-26 21:51 | -20.34481 | 57.68877 | 4677 ft | 260 kts | 338° |
| 2026-04-26 21:51 | -20.32830 | 57.68080 | 5281 ft | 262 kts | 339° |
| 2026-04-26 21:52 | -20.31148 | 57.67279 | 5838 ft | 265 kts | 339° |
| 2026-04-26 21:52 | -20.29462 | 57.66476 | 6494 ft | 266 kts | 339° |
| 2026-04-26 21:52 | -20.27764 | 57.65669 | 7122 ft | 268 kts | 339° |
| 2026-04-26 21:52 | -20.26053 | 57.64863 | 7721 ft | 271 kts | 338° |
| 2026-04-26 21:53 | -20.24320 | 57.64044 | 8284 ft | 273 kts | 339° |
| 2026-04-26 21:53 | -20.22589 | 57.63231 | 8811 ft | 277 kts | 338° |
| 2026-04-26 21:53 | -20.20817 | 57.62398 | 9383 ft | 279 kts | 338° |
| 2026-04-26 21:53 | -20.19025 | 57.61559 | 9880 ft | 283 kts | 338° |
| 2026-04-26 21:54 | -20.17209 | 57.60725 | 10434 ft | 286 kts | 340° |
| 2026-04-26 21:54 | -20.15313 | 57.59991 | 10791 ft | 296 kts | 342° |
| 2026-04-26 21:54 | -20.13315 | 57.59272 | 11027 ft | 310 kts | 342° |
| 2026-04-26 21:54 | -20.11227 | 57.58527 | 11257 ft | 323 kts | 342° |
| 2026-04-26 21:55 | -20.09053 | 57.57752 | 11491 ft | 335 kts | 342° |
| 2026-04-26 21:55 | -20.06806 | 57.56947 | 11706 ft | 347 kts | 342° |
| 2026-04-26 21:55 | -20.04492 | 57.56116 | 12079 ft | 353 kts | 342° |
| 2026-04-26 21:55 | -20.02183 | 57.55288 | 12515 ft | 356 kts | 342° |
| 2026-04-26 21:56 | -19.99789 | 57.54430 | 12961 ft | 360 kts | 342° |
| 2026-04-26 21:56 | -19.97442 | 57.53592 | 13397 ft | 362 kts | 341° |
| 2026-04-26 21:56 | -19.95016 | 57.52722 | 13816 ft | 365 kts | 341° |
| 2026-04-26 21:56 | -19.92600 | 57.51855 | 14245 ft | 368 kts | 341° |
| 2026-04-26 21:57 | -19.90193 | 57.50992 | 14669 ft | 370 kts | 341° |
| 2026-04-26 21:57 | -19.87747 | 57.50084 | 15086 ft | 373 kts | 338° |
| 2026-04-26 21:57 | -19.85370 | 57.48963 | 15476 ft | 376 kts | 334° |
| 2026-04-26 21:57 | -19.83006 | 57.47743 | 15891 ft | 378 kts | 333° |
| 2026-04-26 21:58 | -19.80633 | 57.46511 | 16280 ft | 381 kts | 333° |
| 2026-04-26 21:58 | -19.78237 | 57.45269 | 16664 ft | 384 kts | 333° |
| 2026-04-26 21:58 | -19.75831 | 57.44025 | 17042 ft | 387 kts | 333° |
| 2026-04-26 21:58 | -19.73405 | 57.42769 | 17435 ft | 389 kts | 333° |
| 2026-04-26 21:59 | -19.70965 | 57.41509 | 17793 ft | 391 kts | 333° |
| 2026-04-26 21:59 | -19.68508 | 57.40240 | 18146 ft | 394 kts | 333° |
| 2026-04-26 21:59 | -19.66030 | 57.38960 | 18516 ft | 396 kts | 333° |
| 2026-04-26 21:59 | -19.63545 | 57.37680 | 18853 ft | 399 kts | 333° |
| 2026-04-26 22:00 | -19.61042 | 57.36391 | 19206 ft | 401 kts | 333° |
| 2026-04-26 22:00 | -19.58530 | 57.35098 | 19543 ft | 403 kts | 333° |
| 2026-04-26 22:00 | -19.55999 | 57.33795 | 19888 ft | 405 kts | 333° |
| 2026-04-26 22:00 | -19.53452 | 57.32488 | 20219 ft | 407 kts | 333° |
| 2026-04-26 22:01 | -19.50894 | 57.31174 | 20537 ft | 410 kts | 333° |
| 2026-04-26 22:01 | -19.48315 | 57.29850 | 20836 ft | 412 kts | 333° |
| 2026-04-26 22:01 | -19.45727 | 57.28521 | 21137 ft | 414 kts | 333° |
| 2026-04-26 22:01 | -19.43127 | 57.27185 | 21424 ft | 416 kts | 332° |
| 2026-04-26 22:02 | -19.40514 | 57.25844 | 21736 ft | 419 kts | 332° |
| 2026-04-26 22:02 | -19.37888 | 57.24496 | 22047 ft | 420 kts | 332° |
| 2026-04-26 22:02 | -19.35247 | 57.23142 | 22328 ft | 422 kts | 332° |
| 2026-04-26 22:02 | -19.32596 | 57.21782 | 22581 ft | 424 kts | 332° |
| 2026-04-26 22:03 | -19.29932 | 57.20415 | 22841 ft | 427 kts | 332° |
| 2026-04-26 22:03 | -19.27251 | 57.19044 | 23109 ft | 428 kts | 332° |
| 2026-04-26 22:03 | -19.24568 | 57.17669 | 23369 ft | 430 kts | 332° |
| 2026-04-26 22:03 | -19.21903 | 57.16302 | 23627 ft | 432 kts | 332° |
| 2026-04-26 22:04 | -19.19186 | 57.14910 | 23888 ft | 434 kts | 332° |
| 2026-04-26 22:04 | -19.16461 | 57.13515 | 24132 ft | 436 kts | 332° |
| 2026-04-26 22:04 | -19.13722 | 57.12112 | 24372 ft | 438 kts | 332° |
| 2026-04-26 22:04 | -19.10980 | 57.10710 | 24626 ft | 439 kts | 332° |
| 2026-04-26 22:05 | -19.08225 | 57.09302 | 24876 ft | 441 kts | 332° |
| 2026-04-26 22:05 | -19.05454 | 57.07886 | 25136 ft | 442 kts | 332° |
| 2026-04-26 22:05 | -19.02678 | 57.06468 | 25384 ft | 443 kts | 332° |
| 2026-04-26 22:05 | -18.99902 | 57.05050 | 25639 ft | 445 kts | 332° |
| 2026-04-26 22:06 | -18.97110 | 57.03625 | 25873 ft | 446 kts | 332° |
| 2026-04-26 22:06 | -18.94306 | 57.02194 | 26132 ft | 447 kts | 332° |
| 2026-04-26 22:06 | -18.91496 | 57.00761 | 26382 ft | 449 kts | 332° |
| 2026-04-26 22:06 | -18.88673 | 56.99321 | 26639 ft | 451 kts | 332° |
| 2026-04-26 22:07 | -18.85846 | 56.97881 | 26895 ft | 452 kts | 332° |
| 2026-04-26 22:07 | -18.83011 | 56.96436 | 27151 ft | 454 kts | 332° |
| 2026-04-26 22:07 | -18.80165 | 56.94986 | 27406 ft | 455 kts | 332° |
| 2026-04-26 22:07 | -18.77343 | 56.93549 | 27673 ft | 456 kts | 332° |
| 2026-04-26 22:08 | -18.74479 | 56.92092 | 27933 ft | 458 kts | 332° |
| 2026-04-26 22:08 | -18.71606 | 56.90631 | 28181 ft | 460 kts | 332° |
| 2026-04-26 22:08 | -18.68721 | 56.89164 | 28450 ft | 461 kts | 332° |
| 2026-04-26 22:08 | -18.65823 | 56.87690 | 28724 ft | 462 kts | 332° |
| 2026-04-26 22:09 | -18.62926 | 56.86218 | 28994 ft | 464 kts | 331° |
| 2026-04-26 22:09 | -18.60010 | 56.84736 | 29236 ft | 465 kts | 331° |
| 2026-04-26 22:09 | -18.57088 | 56.83252 | 29506 ft | 467 kts | 332° |
| 2026-04-26 22:09 | -18.54151 | 56.81761 | 29791 ft | 468 kts | 332° |
| 2026-04-26 22:10 | -18.51205 | 56.80267 | 30070 ft | 470 kts | 332° |
| 2026-04-26 22:10 | -18.48252 | 56.78769 | 30353 ft | 471 kts | 331° |
| 2026-04-26 22:10 | -18.45299 | 56.77272 | 30651 ft | 472 kts | 331° |
| 2026-04-26 22:10 | -18.42333 | 56.75768 | 30966 ft | 473 kts | 331° |
| 2026-04-26 22:11 | -18.39363 | 56.74264 | 31264 ft | 475 kts | 331° |
| 2026-04-26 22:11 | -18.36383 | 56.72755 | 31562 ft | 476 kts | 331° |
| 2026-04-26 22:11 | -18.33397 | 56.71243 | 31872 ft | 477 kts | 331° |
| 2026-04-26 22:11 | -18.30449 | 56.69751 | 32144 ft | 478 kts | 331° |
| 2026-04-26 22:12 | -18.27408 | 56.68213 | 32417 ft | 479 kts | 330° |
| 2026-04-26 22:12 | -18.24434 | 56.66709 | 32683 ft | 480 kts | 330° |
| 2026-04-26 22:12 | -18.21421 | 56.65186 | 32944 ft | 482 kts | 330° |
| 2026-04-26 22:12 | -18.18349 | 56.63634 | 33208 ft | 483 kts | 330° |
| 2026-04-26 22:13 | -18.15360 | 56.62125 | 33436 ft | 484 kts | 330° |
| 2026-04-26 22:13 | -18.12311 | 56.60602 | 33683 ft | 486 kts | 332° |
| 2026-04-26 22:13 | -18.09127 | 56.59345 | 33909 ft | 492 kts | 340° |
| 2026-04-26 22:13 | -18.05754 | 56.58599 | 34130 ft | 499 kts | 348° |
| 2026-04-26 22:14 | -18.02302 | 56.58160 | 34363 ft | 501 kts | 350° |
| 2026-04-26 22:14 | -17.98833 | 56.57817 | 34662 ft | 501 kts | 351° |
| 2026-04-26 22:14 | -17.95350 | 56.57516 | 35038 ft | 499 kts | 351° |
| 2026-04-26 22:14 | -17.91900 | 56.57227 | 35425 ft | 496 kts | 351° |
| 2026-04-26 22:15 | -17.88465 | 56.56933 | 35786 ft | 495 kts | 351° |
| 2026-04-26 22:15 | -17.85032 | 56.56627 | 36110 ft | 493 kts | 350° |
| 2026-04-26 22:15 | -17.81620 | 56.56314 | 36432 ft | 492 kts | 350° |
| 2026-04-26 22:15 | -17.78215 | 56.55996 | 36758 ft | 490 kts | 349° |
| 2026-04-26 22:16 | -17.74816 | 56.55674 | 37114 ft | 488 kts | 349° |
| 2026-04-26 22:16 | -17.71445 | 56.55355 | 37484 ft | 485 kts | 349° |
| 2026-04-26 22:16 | -17.68098 | 56.55039 | 37899 ft | 482 kts | 349° |
| 2026-04-26 22:16 | -17.64772 | 56.54727 | 38330 ft | 478 kts | 349° |
| 2026-04-26 22:17 | -17.61514 | 56.54421 | 38709 ft | 474 kts | 349° |
| 2026-04-26 22:17 | -17.58231 | 56.54112 | 38991 ft | 473 kts | 349° |
| 2026-04-26 22:17 | -17.54954 | 56.53802 | 39256 ft | 472 kts | 349° |
| 2026-04-26 22:17 | -17.51680 | 56.53494 | 39486 ft | 472 kts | 349° |
| 2026-04-26 22:18 | -17.48407 | 56.53184 | 39684 ft | 473 kts | 349° |
| 2026-04-26 22:18 | -17.45133 | 56.52873 | 39891 ft | 472 kts | 349° |
| 2026-04-26 22:18 | -17.41847 | 56.52561 | 40071 ft | 473 kts | 349° |
| 2026-04-26 22:18 | -17.38570 | 56.52251 | 40250 ft | 473 kts | 349° |
| 2026-04-26 22:19 | -17.35292 | 56.51943 | 40442 ft | 473 kts | 349° |
| 2026-04-26 22:19 | -17.32020 | 56.51636 | 40629 ft | 472 kts | 349° |
| 2026-04-26 22:19 | -17.28744 | 56.51329 | 40797 ft | 472 kts | 349° |
| 2026-04-26 22:19 | -17.25471 | 56.51022 | 40912 ft | 474 kts | 349° |
| 2026-04-26 22:20 | -17.19972 | 56.50504 | 40927 ft | 479 kts | 349° |
| 2026-04-26 22:20 | -17.12193 | 56.49775 | 40925 ft | 480 kts | 349° |
| 2026-04-26 22:21 | -17.05582 | 56.49157 | 40925 ft | 480 kts | 349° |
| 2026-04-26 22:21 | -16.98940 | 56.48536 | 40924 ft | 479 kts | 349° |
| 2026-04-26 22:22 | -16.92286 | 56.47913 | 40917 ft | 480 kts | 349° |
| 2026-04-26 22:22 | -16.85628 | 56.47291 | 40915 ft | 480 kts | 349° |
| 2026-04-26 22:23 | -16.78981 | 56.46670 | 40916 ft | 480 kts | 350° |
| 2026-04-26 22:23 | -16.72315 | 56.46047 | 40916 ft | 480 kts | 350° |
| 2026-04-26 22:24 | -16.65707 | 56.45431 | 40916 ft | 480 kts | 350° |
| 2026-04-26 22:24 | -16.59051 | 56.44810 | 40915 ft | 479 kts | 350° |
| 2026-04-26 22:25 | -16.52405 | 56.44191 | 40915 ft | 479 kts | 350° |
| 2026-04-26 22:25 | -16.45759 | 56.43572 | 40915 ft | 479 kts | 350° |
| 2026-04-26 22:26 | -16.39113 | 56.42954 | 40916 ft | 479 kts | 350° |
| 2026-04-26 22:26 | -16.32519 | 56.42341 | 40916 ft | 479 kts | 350° |
| 2026-04-26 22:27 | -16.25866 | 56.41722 | 40915 ft | 479 kts | 350° |
| 2026-04-26 22:27 | -16.19229 | 56.41106 | 40916 ft | 479 kts | 350° |
| 2026-04-26 22:28 | -16.13704 | 56.40593 | 40916 ft | 479 kts | 350° |
| 2026-04-26 22:28 | -16.07010 | 56.39973 | 40915 ft | 479 kts | 350° |
| 2026-04-26 22:29 | -16.00414 | 56.39361 | 40915 ft | 479 kts | 350° |
| 2026-04-26 22:29 | -15.93776 | 56.38747 | 40916 ft | 479 kts | 350° |
| 2026-04-26 22:30 | -15.87143 | 56.38132 | 40915 ft | 479 kts | 350° |
| 2026-04-26 22:30 | -15.80507 | 56.37518 | 40916 ft | 479 kts | 350° |
| 2026-04-26 22:31 | -15.73868 | 56.36905 | 40916 ft | 479 kts | 350° |
| 2026-04-26 22:31 | -15.67230 | 56.36292 | 40916 ft | 479 kts | 350° |
| 2026-04-26 22:32 | -15.60599 | 56.35680 | 40916 ft | 479 kts | 350° |
| 2026-04-26 22:32 | -15.53990 | 56.35070 | 40916 ft | 479 kts | 350° |
| 2026-04-26 22:33 | -15.44028 | 56.34152 | 40916 ft | 479 kts | 350° |
| 2026-04-26 22:34 | -15.37392 | 56.33540 | 40915 ft | 479 kts | 350° |
| 2026-04-26 22:34 | -15.30746 | 56.32929 | 40916 ft | 479 kts | 350° |
| 2026-04-26 22:35 | -15.24120 | 56.32320 | 40915 ft | 479 kts | 350° |
| 2026-04-26 22:35 | -15.17481 | 56.31711 | 40915 ft | 479 kts | 351° |
| 2026-04-26 22:36 | -15.10886 | 56.31104 | 40916 ft | 479 kts | 351° |
| 2026-04-26 22:36 | -15.04241 | 56.30493 | 40916 ft | 479 kts | 351° |
| 2026-04-26 22:37 | -14.97608 | 56.29884 | 40915 ft | 479 kts | 351° |
| 2026-04-26 22:37 | -14.90971 | 56.29276 | 40915 ft | 478 kts | 351° |
| 2026-04-26 22:38 | -14.84333 | 56.28667 | 40916 ft | 478 kts | 351° |
| 2026-04-26 22:38 | -14.77700 | 56.28060 | 40916 ft | 479 kts | 351° |
| 2026-04-26 22:39 | -14.71067 | 56.27453 | 40906 ft | 478 kts | 351° |
| 2026-04-26 22:39 | -14.64435 | 56.26846 | 40906 ft | 478 kts | 351° |
| 2026-04-26 22:40 | -14.57808 | 56.26241 | 40907 ft | 478 kts | 351° |
| 2026-04-26 22:40 | -14.51170 | 56.25634 | 40906 ft | 478 kts | 351° |
| 2026-04-26 22:41 | -14.44589 | 56.25033 | 40907 ft | 478 kts | 351° |
| 2026-04-26 22:41 | -14.37954 | 56.24428 | 40905 ft | 478 kts | 351° |
| 2026-04-26 22:42 | -14.31325 | 56.23823 | 40906 ft | 478 kts | 351° |
| 2026-04-26 22:42 | -14.24701 | 56.23219 | 40907 ft | 478 kts | 351° |
| 2026-04-26 22:43 | -14.18069 | 56.22616 | 40905 ft | 478 kts | 351° |
| 2026-04-26 22:43 | -14.11448 | 56.22013 | 40907 ft | 478 kts | 351° |
| 2026-04-26 22:44 | -14.04856 | 56.21413 | 40907 ft | 478 kts | 351° |
| 2026-04-26 22:44 | -13.98232 | 56.20811 | 40906 ft | 478 kts | 351° |
| 2026-04-26 22:45 | -13.91610 | 56.20209 | 40907 ft | 478 kts | 351° |
| 2026-04-26 22:45 | -13.84986 | 56.19607 | 40906 ft | 478 kts | 351° |
| 2026-04-26 22:46 | -13.78366 | 56.19006 | 40906 ft | 478 kts | 351° |
| 2026-04-26 22:46 | -13.71736 | 56.18405 | 40906 ft | 478 kts | 351° |
| 2026-04-26 22:47 | -13.65113 | 56.17804 | 40906 ft | 478 kts | 351° |
| 2026-04-26 22:47 | -13.58502 | 56.17205 | 40907 ft | 478 kts | 351° |
| 2026-04-26 22:48 | -13.51864 | 56.16604 | 40906 ft | 478 kts | 351° |
| 2026-04-26 22:48 | -13.45235 | 56.16004 | 40905 ft | 478 kts | 351° |
| 2026-04-26 22:49 | -13.38605 | 56.15404 | 40905 ft | 478 kts | 351° |
| 2026-04-26 22:49 | -13.31979 | 56.14805 | 40910 ft | 478 kts | 351° |
| 2026-04-26 22:50 | -13.25392 | 56.14210 | 40909 ft | 478 kts | 351° |
| 2026-04-26 22:50 | -13.18760 | 56.13611 | 40905 ft | 478 kts | 351° |
| 2026-04-26 22:51 | -13.12129 | 56.13012 | 40906 ft | 478 kts | 351° |
| 2026-04-26 22:51 | -13.05486 | 56.12413 | 40906 ft | 478 kts | 351° |
| 2026-04-26 22:52 | -12.98858 | 56.11815 | 40908 ft | 478 kts | 352° |
| 2026-04-26 22:52 | -12.92227 | 56.11218 | 40906 ft | 478 kts | 352° |
| 2026-04-26 22:53 | -12.85589 | 56.10620 | 40907 ft | 479 kts | 352° |
| 2026-04-26 22:53 | -12.78953 | 56.10022 | 40906 ft | 478 kts | 352° |
| 2026-04-26 22:54 | -12.72315 | 56.09425 | 40907 ft | 479 kts | 352° |
| 2026-04-26 22:54 | -12.65716 | 56.08832 | 40906 ft | 479 kts | 352° |
| 2026-04-26 22:55 | -12.59079 | 56.08235 | 40907 ft | 479 kts | 352° |
| 2026-04-26 22:55 | -12.52436 | 56.07639 | 40906 ft | 478 kts | 352° |
| 2026-04-26 22:56 | -12.45805 | 56.07043 | 40908 ft | 478 kts | 352° |
| 2026-04-26 22:56 | -12.39177 | 56.06448 | 40902 ft | 479 kts | 352° |
| 2026-04-26 22:57 | -12.32525 | 56.05851 | 40890 ft | 479 kts | 352° |
| 2026-04-26 22:57 | -12.25931 | 56.05260 | 40890 ft | 479 kts | 352° |
| 2026-04-26 22:58 | -12.19251 | 56.04662 | 40883 ft | 478 kts | 352° |
| 2026-04-26 22:58 | -12.12611 | 56.04155 | 40888 ft | 480 kts | 357° |
| 2026-04-26 22:59 | -12.05977 | 56.04775 | 40892 ft | 484 kts | 5° |
| 2026-04-26 22:59 | -11.99310 | 56.05800 | 40884 ft | 485 kts | 6° |
| 2026-04-26 23:00 | -11.92647 | 56.06890 | 40888 ft | 485 kts | 6° |
| 2026-04-26 23:00 | -11.85982 | 56.07968 | 40880 ft | 485 kts | 6° |
| 2026-04-26 23:01 | -11.79319 | 56.09028 | 40881 ft | 484 kts | 6° |
| 2026-04-26 23:01 | -11.72649 | 56.10083 | 40881 ft | 484 kts | 6° |
| 2026-04-26 23:02 | -11.65981 | 56.11137 | 40883 ft | 484 kts | 6° |
| 2026-04-26 23:02 | -11.59315 | 56.12191 | 40873 ft | 485 kts | 6° |
| 2026-04-26 23:03 | -11.52688 | 56.13239 | 40877 ft | 485 kts | 6° |
| 2026-04-26 23:03 | -11.46018 | 56.14293 | 40876 ft | 485 kts | 6° |
| 2026-04-26 23:04 | -11.39339 | 56.15348 | 40875 ft | 485 kts | 6° |
| 2026-04-26 23:04 | -11.32660 | 56.16403 | 40877 ft | 485 kts | 6° |
| 2026-04-26 23:05 | -11.25975 | 56.17458 | 40874 ft | 486 kts | 6° |
| 2026-04-26 23:05 | -11.19304 | 56.18510 | 40872 ft | 486 kts | 6° |
| 2026-04-26 23:06 | -11.12619 | 56.19564 | 40879 ft | 486 kts | 6° |
| 2026-04-26 23:06 | -11.05933 | 56.20617 | 40883 ft | 486 kts | 6° |
| 2026-04-26 23:07 | -10.99297 | 56.21663 | 40874 ft | 486 kts | 6° |
| 2026-04-26 23:07 | -10.92620 | 56.22714 | 40882 ft | 486 kts | 6° |
| 2026-04-26 23:08 | -10.85911 | 56.23770 | 40869 ft | 486 kts | 6° |
| 2026-04-26 23:08 | -10.79224 | 56.24822 | 40878 ft | 486 kts | 6° |
| 2026-04-26 23:09 | -10.72529 | 56.25874 | 40876 ft | 486 kts | 6° |
| 2026-04-26 23:09 | -10.65836 | 56.26926 | 40873 ft | 487 kts | 6° |
| 2026-04-26 23:10 | -10.59147 | 56.27977 | 40877 ft | 487 kts | 6° |
| 2026-04-26 23:10 | -10.52453 | 56.29028 | 40878 ft | 487 kts | 6° |
| 2026-04-26 23:11 | -10.45797 | 56.30073 | 40866 ft | 487 kts | 6° |
| 2026-04-26 23:11 | -10.39101 | 56.31123 | 40868 ft | 487 kts | 6° |
| 2026-04-26 23:12 | -10.32401 | 56.32174 | 40862 ft | 487 kts | 6° |
| 2026-04-26 23:12 | -10.25705 | 56.33223 | 40862 ft | 487 kts | 7° |
| 2026-04-26 23:13 | -10.19018 | 56.34271 | 40868 ft | 487 kts | 7° |
| 2026-04-26 23:13 | -10.12314 | 56.35321 | 40876 ft | 487 kts | 7° |
| 2026-04-26 23:14 | -10.05623 | 56.36369 | 40861 ft | 487 kts | 7° |
| 2026-04-26 23:14 | -9.98908 | 56.36971 | 40879 ft | 483 kts | 355° |
| 2026-04-26 23:15 | -9.92209 | 56.36385 | 40864 ft | 482 kts | 352° |
| 2026-04-26 23:15 | -9.85551 | 56.35589 | 40873 ft | 482 kts | 351° |
| 2026-04-26 23:16 | -9.80021 | 56.34906 | 40878 ft | 482 kts | 351° |
| 2026-04-26 23:16 | -9.73351 | 56.34099 | 40870 ft | 482 kts | 351° |
| 2026-04-26 23:17 | -9.66687 | 56.33308 | 40864 ft | 482 kts | 351° |
| 2026-04-26 23:17 | -9.60013 | 56.32521 | 40877 ft | 482 kts | 351° |
| 2026-04-26 23:18 | -9.53351 | 56.31735 | 40862 ft | 482 kts | 351° |
| 2026-04-26 23:18 | -9.46727 | 56.30954 | 40863 ft | 482 kts | 351° |
| 2026-04-26 23:19 | -9.40071 | 56.30168 | 40879 ft | 482 kts | 351° |
| 2026-04-26 23:19 | -9.33409 | 56.29382 | 40870 ft | 482 kts | 351° |
| 2026-04-26 23:20 | -9.26754 | 56.28597 | 40874 ft | 481 kts | 351° |
| 2026-04-26 23:20 | -9.20102 | 56.27813 | 40872 ft | 481 kts | 351° |
| 2026-04-26 23:21 | -9.13443 | 56.27028 | 40875 ft | 481 kts | 352° |
| 2026-04-26 23:21 | -9.06796 | 56.26245 | 40862 ft | 481 kts | 352° |
| 2026-04-26 23:22 | -9.00135 | 56.25461 | 40874 ft | 481 kts | 352° |
| 2026-04-26 23:22 | -8.93491 | 56.24679 | 40869 ft | 481 kts | 352° |
| 2026-04-26 23:23 | -8.86888 | 56.23902 | 40867 ft | 481 kts | 352° |
| 2026-04-26 23:23 | -8.80241 | 56.23120 | 40867 ft | 480 kts | 352° |
| 2026-04-26 23:24 | -8.73598 | 56.22339 | 40871 ft | 480 kts | 352° |
| 2026-04-26 23:24 | -8.66966 | 56.21560 | 40874 ft | 480 kts | 352° |
| 2026-04-26 23:25 | -8.60334 | 56.20781 | 40860 ft | 480 kts | 352° |
| 2026-04-26 23:25 | -8.53694 | 56.20001 | 40860 ft | 480 kts | 352° |
| 2026-04-26 23:26 | -8.47059 | 56.19221 | 40860 ft | 480 kts | 352° |
| 2026-04-26 23:26 | -8.40439 | 56.18445 | 40851 ft | 480 kts | 352° |
| 2026-04-26 23:27 | -8.33800 | 56.17666 | 40861 ft | 479 kts | 352° |
| 2026-04-26 23:27 | -8.27212 | 56.16893 | 40859 ft | 480 kts | 352° |
| 2026-04-26 23:28 | -8.20593 | 56.16117 | 40860 ft | 480 kts | 352° |
| 2026-04-26 23:28 | -8.13946 | 56.15338 | 40860 ft | 480 kts | 352° |
| 2026-04-26 23:29 | -8.07310 | 56.14560 | 40860 ft | 480 kts | 352° |
| 2026-04-26 23:29 | -8.00675 | 56.13783 | 40859 ft | 480 kts | 352° |
| 2026-04-26 23:30 | -7.94042 | 56.13006 | 40860 ft | 479 kts | 352° |
| 2026-04-26 23:30 | -7.87417 | 56.12231 | 40860 ft | 479 kts | 352° |
| 2026-04-26 23:31 | -7.80793 | 56.11456 | 40860 ft | 479 kts | 352° |
| 2026-04-26 23:31 | -7.74162 | 56.10680 | 40860 ft | 479 kts | 352° |
| 2026-04-26 23:32 | -7.67540 | 56.09906 | 40860 ft | 479 kts | 352° |
| 2026-04-26 23:32 | -7.60905 | 56.09104 | 40860 ft | 479 kts | 350° |
| 2026-04-26 23:33 | -7.54356 | 56.07882 | 40861 ft | 478 kts | 347° |
| 2026-04-26 23:33 | -7.47835 | 56.06518 | 40859 ft | 478 kts | 347° |
| 2026-04-26 23:34 | -7.41356 | 56.05218 | 40859 ft | 478 kts | 347° |
| 2026-04-26 23:34 | -7.34812 | 56.03955 | 40860 ft | 478 kts | 348° |
| 2026-04-26 23:35 | -7.28277 | 56.02711 | 40861 ft | 478 kts | 348° |
| 2026-04-26 23:35 | -7.21746 | 56.01465 | 40860 ft | 478 kts | 348° |
| 2026-04-26 23:36 | -7.15221 | 56.00219 | 40859 ft | 477 kts | 348° |
| 2026-04-26 23:36 | -7.08687 | 55.98971 | 40859 ft | 477 kts | 348° |
| 2026-04-26 23:37 | -7.02157 | 55.97724 | 40859 ft | 477 kts | 348° |
| 2026-04-26 23:37 | -6.95631 | 55.96479 | 40860 ft | 477 kts | 348° |
| 2026-04-26 23:38 | -6.89101 | 55.95233 | 40860 ft | 477 kts | 348° |
| 2026-04-26 23:38 | -6.82696 | 55.94011 | 40366 ft | 472 kts | 348° |
| 2026-04-26 23:38 | -6.79499 | 55.93401 | 39570 ft | 475 kts | 348° |
| 2026-04-26 23:39 | -6.76244 | 55.92779 | 38728 ft | 478 kts | 348° |
| 2026-04-26 23:39 | -6.72961 | 55.92153 | 37887 ft | 481 kts | 348° |
| 2026-04-26 23:39 | -6.69658 | 55.91523 | 37002 ft | 484 kts | 348° |
| 2026-04-26 23:39 | -6.66349 | 55.90892 | 35959 ft | 483 kts | 348° |
| 2026-04-26 23:40 | -6.63049 | 55.90263 | 35013 ft | 480 kts | 348° |
| 2026-04-26 23:40 | -6.59803 | 55.89646 | 34342 ft | 470 kts | 348° |
| 2026-04-26 23:40 | -6.56631 | 55.89041 | 33786 ft | 460 kts | 348° |
| 2026-04-26 23:40 | -6.53485 | 55.88441 | 33242 ft | 459 kts | 348° |
| 2026-04-26 23:41 | -6.50337 | 55.87842 | 32692 ft | 460 kts | 348° |
| 2026-04-26 23:41 | -6.47203 | 55.87245 | 32141 ft | 458 kts | 348° |
| 2026-04-26 23:41 | -6.44074 | 55.86648 | 31592 ft | 456 kts | 348° |
| 2026-04-26 23:41 | -6.40965 | 55.86056 | 31042 ft | 454 kts | 348° |
| 2026-04-26 23:42 | -6.37865 | 55.85466 | 30495 ft | 451 kts | 348° |
| 2026-04-26 23:42 | -6.31759 | 55.84304 | 29426 ft | 447 kts | 348° |
| 2026-04-26 23:42 | -6.28673 | 55.83716 | 28883 ft | 444 kts | 348° |
| 2026-04-26 23:43 | -6.25695 | 55.83151 | 28358 ft | 440 kts | 348° |
| 2026-04-26 23:43 | -6.22698 | 55.82581 | 27830 ft | 437 kts | 348° |
| 2026-04-26 23:43 | -6.19704 | 55.82009 | 27307 ft | 437 kts | 348° |
| 2026-04-26 23:43 | -6.16726 | 55.81443 | 26770 ft | 434 kts | 349° |
| 2026-04-26 23:44 | -6.13758 | 55.80878 | 26236 ft | 432 kts | 349° |
| 2026-04-26 23:44 | -6.10811 | 55.80317 | 25703 ft | 429 kts | 349° |
| 2026-04-26 23:44 | -6.07886 | 55.79760 | 25169 ft | 426 kts | 349° |
| 2026-04-26 23:44 | -6.04978 | 55.79207 | 24634 ft | 423 kts | 350° |
| 2026-04-26 23:45 | -6.02094 | 55.78659 | 24106 ft | 420 kts | 350° |
| 2026-04-26 23:45 | -5.99228 | 55.78114 | 23570 ft | 418 kts | 350° |
| 2026-04-26 23:45 | -5.96383 | 55.77573 | 23042 ft | 414 kts | 350° |
| 2026-04-26 23:45 | -5.93561 | 55.77037 | 22506 ft | 411 kts | 350° |
| 2026-04-26 23:46 | -5.90760 | 55.76504 | 21987 ft | 408 kts | 350° |
| 2026-04-26 23:46 | -5.87983 | 55.75976 | 21435 ft | 404 kts | 350° |
| 2026-04-26 23:46 | -5.85234 | 55.75454 | 20909 ft | 401 kts | 350° |
| 2026-04-26 23:46 | -5.82502 | 55.74934 | 20373 ft | 397 kts | 350° |
| 2026-04-26 23:47 | -5.79798 | 55.74421 | 19858 ft | 393 kts | 350° |
| 2026-04-26 23:47 | -5.77122 | 55.73912 | 19330 ft | 390 kts | 349° |
| 2026-04-26 23:47 | -5.74507 | 55.73415 | 18829 ft | 386 kts | 349° |
| 2026-04-26 23:47 | -5.71847 | 55.72909 | 18309 ft | 382 kts | 349° |
| 2026-04-26 23:48 | -5.69279 | 55.72421 | 17809 ft | 378 kts | 349° |
| 2026-04-26 23:48 | -5.66706 | 55.71933 | 17303 ft | 374 kts | 349° |
| 2026-04-26 23:48 | -5.64162 | 55.71450 | 16804 ft | 370 kts | 349° |
| 2026-04-26 23:48 | -5.61642 | 55.70971 | 16307 ft | 366 kts | 349° |
| 2026-04-26 23:49 | -5.59152 | 55.70499 | 15811 ft | 362 kts | 349° |
| 2026-04-26 23:49 | -5.56694 | 55.70033 | 15329 ft | 358 kts | 349° |
| 2026-04-26 23:49 | -5.54260 | 55.69571 | 14836 ft | 354 kts | 349° |
| 2026-04-26 23:49 | -5.51858 | 55.69115 | 14355 ft | 350 kts | 349° |
| 2026-04-26 23:50 | -5.49483 | 55.68665 | 13877 ft | 346 kts | 349° |
| 2026-04-26 23:50 | -5.47126 | 55.68217 | 13403 ft | 342 kts | 349° |
| 2026-04-26 23:50 | -5.44803 | 55.67776 | 12932 ft | 338 kts | 349° |
| 2026-04-26 23:50 | -5.42502 | 55.67339 | 12465 ft | 334 kts | 349° |
| 2026-04-26 23:51 | -5.40227 | 55.66908 | 11998 ft | 332 kts | 349° |
| 2026-04-26 23:51 | -5.38004 | 55.66486 | 11541 ft | 330 kts | 349° |
| 2026-04-26 23:51 | -5.35734 | 55.66056 | 11073 ft | 328 kts | 348° |
| 2026-04-26 23:51 | -5.33498 | 55.65632 | 10635 ft | 325 kts | 348° |
| 2026-04-26 23:52 | -5.31326 | 55.65221 | 10488 ft | 311 kts | 348° |
| 2026-04-26 23:52 | -5.29247 | 55.64827 | 10353 ft | 297 kts | 348° |
| 2026-04-26 23:52 | -5.27256 | 55.64449 | 10218 ft | 285 kts | 348° |
| 2026-04-26 23:52 | -5.25337 | 55.64085 | 10034 ft | 279 kts | 348° |
| 2026-04-26 23:53 | -5.23431 | 55.63723 | 9732 ft | 280 kts | 348° |
| 2026-04-26 23:53 | -5.21459 | 55.63348 | 9560 ft | 294 kts | 348° |
| 2026-04-26 23:53 | -5.19445 | 55.62965 | 9360 ft | 293 kts | 348° |
| 2026-04-26 23:53 | -5.17427 | 55.62589 | 8816 ft | 295 kts | 349° |
| 2026-04-26 23:54 | -5.15369 | 55.62427 | 8281 ft | 298 kts | 358° |
| 2026-04-26 23:54 | -5.13300 | 55.62428 | 7833 ft | 296 kts | 359° |
| 2026-04-26 23:54 | -5.11259 | 55.62449 | 7478 ft | 291 kts | 359° |
| 2026-04-26 23:54 | -5.09247 | 55.62469 | 7146 ft | 289 kts | 359° |
| 2026-04-26 23:55 | -5.07244 | 55.62484 | 6828 ft | 287 kts | 359° |
| 2026-04-26 23:55 | -5.05254 | 55.62498 | 6502 ft | 286 kts | 359° |
| 2026-04-26 23:55 | -5.03292 | 55.62513 | 6186 ft | 285 kts | 359° |
| 2026-04-26 23:55 | -5.01316 | 55.62528 | 5865 ft | 283 kts | 359° |
| 2026-04-26 23:56 | -4.99349 | 55.62543 | 5542 ft | 282 kts | 359° |
| 2026-04-26 23:56 | -4.97396 | 55.62556 | 5220 ft | 280 kts | 359° |
| 2026-04-26 23:56 | -4.95450 | 55.62568 | 4909 ft | 279 kts | 359° |
| 2026-04-26 23:56 | -4.93509 | 55.62580 | 4594 ft | 278 kts | 359° |
| 2026-04-26 23:57 | -4.91585 | 55.62760 | 4361 ft | 279 kts | 11° |
| 2026-04-26 23:57 | -4.89715 | 55.63269 | 3994 ft | 278 kts | 15° |
| 2026-04-26 23:57 | -4.87872 | 55.63841 | 3631 ft | 276 kts | 16° |
| 2026-04-26 23:57 | -4.86045 | 55.64411 | 3318 ft | 275 kts | 16° |
| 2026-04-26 23:58 | -4.84241 | 55.64977 | 3155 ft | 264 kts | 16° |
| 2026-04-26 23:58 | -4.82537 | 55.65512 | 3090 ft | 249 kts | 16° |
| 2026-04-26 23:58 | -4.80931 | 55.66008 | 3016 ft | 235 kts | 16° |
| 2026-04-26 23:58 | -4.79409 | 55.66440 | 2935 ft | 219 kts | 8° |
| 2026-04-26 23:59 | -4.78022 | 55.66202 | 2923 ft | 193 kts | 332° |
| 2026-04-26 23:59 | -4.76951 | 55.65490 | 2797 ft | 177 kts | 318° |
| 2026-04-26 23:59 | -4.76082 | 55.64680 | 2713 ft | 164 kts | 307° |
| 2026-04-26 23:59 | -4.75439 | 55.63779 | 2562 ft | 157 kts | 301° |
| 2026-04-27 00:00 | -4.74803 | 55.62903 | 2356 ft | 154 kts | 304° |
| 2026-04-27 00:00 | -4.74208 | 55.62041 | 2144 ft | 151 kts | 303° |
| 2026-04-27 00:00 | -4.73622 | 55.61183 | 1948 ft | 148 kts | 303° |
| 2026-04-27 00:00 | -4.73035 | 55.60333 | 1741 ft | 145 kts | 305° |
| 2026-04-27 00:01 | -4.72477 | 55.59523 | 1563 ft | 142 kts | 305° |
| 2026-04-27 00:01 | -4.71921 | 55.58714 | 1375 ft | 140 kts | 304° |
| 2026-04-27 00:01 | -4.71367 | 55.57908 | 1171 ft | 140 kts | 305° |
| 2026-04-27 00:01 | -4.70821 | 55.57112 | 983 ft | 136 kts | 305° |
| 2026-04-27 00:02 | -4.70289 | 55.56325 | 810 ft | 137 kts | 305° |
| 2026-04-27 00:02 | -4.69753 | 55.55542 | 654 ft | 136 kts | 305° |
| 2026-04-27 00:02 | -4.69218 | 55.54762 | 484 ft | 136 kts | 305° |
| 2026-04-27 00:02 | -4.68679 | 55.53987 | 294 ft | 136 kts | 305° |
| 2026-04-27 00:03 | -4.68145 | 55.53212 | 96 ft | 135 kts | 305° |
| 2026-04-27 00:03 | -4.67629 | 55.52455 | 30 ft | 125 kts | 307° |
| 2026-04-27 00:03 | -4.67215 | 55.51859 | 29 ft | 81 kts | 304° |
| 2026-04-27 00:03 | -4.66978 | 55.51513 | 28 ft | 43 kts | 304° |
| 2026-04-27 00:04 | -4.66905 | 55.51377 | 28 ft | 7 kts | 257° |
| 2026-04-27 00:04 | -4.66965 | 55.51321 | 27 ft | 15 kts | 216° |
| 2026-04-27 00:04 | -4.67046 | 55.51249 | 27 ft | 12 kts | 217° |
| 2026-04-27 00:04 | -4.67073 | 55.51230 | 26 ft | 5 kts | 214° |